Time;durP1;ratioP1;P1;durP2;ratioP2;P2;SDS_P1;SDS_P2;PMS_P1;PMS_P2;Temp;Humidity;BMP_temperature;BMP_pressure;BME280_temperature;BME280_humidity;BME280_pressure;Samples;Min_cycle;Max_cycle;Signal;HPM_P1;HPM_P2
2023/08/26 00:01:17;;;;;;;11.73;8.98;;;18.10;99.90;;;;;;21049201;28;20053;-62
2023/08/26 00:11:19;;;;;;;13.07;9.68;;;18.20;99.90;;;;;;21049447;28;20062;-62
2023/08/26 00:21:22;;;;;;;12.77;10.05;;;18.40;99.90;;;;;;21061236;28;20085;-51
2023/08/26 00:31:24;;;;;;;10.63;9.52;;;18.40;99.90;;;;;;21059986;28;20554;-62
2023/08/26 00:41:26;;;;;;;11.95;9.27;;;18.50;99.90;;;;;;21041070;28;20044;-62
2023/08/26 00:51:28;;;;;;;12.75;10.05;;;18.30;99.90;;;;;;21040637;28;20036;-62
2023/08/26 01:01:32;;;;;;;12.38;9.57;;;18.30;99.90;;;;;;21042467;28;20062;-62
2023/08/26 01:11:52;;;;;;;14.48;9.60;;;18.00;99.90;;;;;;21046831;28;20497;-62
2023/08/26 01:22:00;;;;;;;11.27;9.00;;;17.80;99.90;;;;;;21056577;28;20036;-62
2023/08/26 01:32:17;;;;;;;11.23;9.77;;;18.00;99.90;;;;;;21055387;28;20032;-62
2023/08/26 01:42:23;;;;;;;11.20;9.52;;;17.90;99.90;;;;;;21042503;28;20109;-62
2023/08/26 01:52:25;;;;;;;11.68;9.25;;;17.70;99.90;;;;;;21036173;28;20032;-62
2023/08/26 02:02:27;;;;;;;11.43;10.07;;;17.80;99.90;;;;;;21030237;28;20090;-52
2023/08/26 02:12:29;;;;;;;12.80;10.05;;;17.80;99.90;;;;;;21049170;28;20031;-53
2023/08/26 02:22:34;;;;;;;12.77;10.30;;;17.70;99.90;;;;;;21052739;28;20028;-62
2023/08/26 02:32:37;;;;;;;11.00;9.45;;;17.90;99.90;;;;;;21046080;28;20028;-62
2023/08/26 02:42:40;;;;;;;10.32;9.30;;;18.00;99.90;;;;;;21033425;28;20032;-62
2023/08/26 02:52:42;;;;;;;11.85;9.23;;;17.90;99.90;;;;;;20956595;28;20474;-62
2023/08/26 03:02:44;;;;;;;11.77;9.00;;;17.80;99.90;;;;;;20965915;28;20052;-62
2023/08/26 03:12:46;;;;;;;11.10;8.88;;;17.60;99.90;;;;;;20973790;28;20493;-50
2023/08/26 03:22:47;;;;;;;10.60;8.57;;;17.50;99.90;;;;;;21003438;28;20040;-61
2023/08/26 03:32:49;;;;;;;11.23;10.02;;;17.30;99.90;;;;;;21023558;28;20040;-61
2023/08/26 03:42:53;;;;;;;12.48;9.23;;;17.10;99.90;;;;;;21026784;28;20098;-61
2023/08/26 03:52:54;;;;;;;12.82;9.90;;;16.80;99.90;;;;;;21016706;28;20089;-61
2023/08/26 04:02:56;;;;;;;11.85;9.32;;;16.60;99.90;;;;;;21012357;28;20056;-53
2023/08/26 04:13:17;;;;;;;11.77;10.10;;;16.30;99.90;;;;;;21010477;28;20032;-61
2023/08/26 04:23:19;;;;;;;13.80;10.45;;;16.20;99.90;;;;;;21012621;28;20032;-51
2023/08/26 04:33:21;;;;;;;12.07;10.23;;;16.10;99.90;;;;;;21008116;28;20029;-61
2023/08/26 04:43:23;;;;;;;13.18;10.10;;;16.20;99.90;;;;;;21018138;28;20409;-61
2023/08/26 04:53:25;;;;;;;10.98;9.35;;;15.90;99.90;;;;;;21006423;28;20033;-62
2023/08/26 05:03:26;;;;;;;12.23;9.40;;;16.10;99.90;;;;;;21012566;28;20048;-62
2023/08/26 05:13:28;;;;;;;12.40;9.50;;;16.30;99.90;;;;;;21003855;28;20486;-54
2023/08/26 05:23:31;;;;;;;11.35;9.68;;;16.60;99.90;;;;;;21004561;28;20153;-62
2023/08/26 05:33:33;;;;;;;12.57;9.35;;;16.70;99.90;;;;;;20975648;28;20043;-54
2023/08/26 05:43:35;;;;;;;11.43;9.82;;;16.70;99.90;;;;;;21009065;28;20343;-62
2023/08/26 05:53:36;;;;;;;12.30;9.30;;;17.00;99.90;;;;;;21036039;28;20530;-62
2023/08/26 06:03:39;;;;;;;13.98;9.77;;;17.00;99.90;;;;;;21004339;28;20044;-62
2023/08/26 06:13:42;;;;;;;12.75;10.00;;;17.10;99.90;;;;;;21009436;28;20191;-62
2023/08/26 06:23:45;;;;;;;11.93;9.10;;;17.30;99.90;;;;;;20976235;28;20037;-59
2023/08/26 06:33:47;;;;;;;10.00;8.93;;;17.60;99.90;;;;;;20998280;28;20036;-62
2023/08/26 06:43:49;;;;;;;9.05;7.97;;;18.60;99.90;;;;;;20998398;28;20041;-63
2023/08/26 06:53:57;;;;;;;11.18;8.20;;;20.10;99.90;;;;;;21005887;28;20032;-64
2023/08/26 07:04:07;;;;;;;8.07;7.20;;;21.60;99.90;;;;;;21006774;28;20048;-61
2023/08/26 07:14:09;;;;;;;8.32;7.47;;;23.40;98.40;;;;;;21026289;28;20435;-56
2023/08/26 07:24:11;;;;;;;8.45;7.55;;;24.70;96.90;;;;;;21021430;28;20047;-66
2023/08/26 07:34:13;;;;;;;7.13;6.50;;;25.50;95.20;;;;;;21040150;28;20470;-66
2023/08/26 07:44:15;;;;;;;9.40;7.70;;;26.00;95.60;;;;;;21034412;28;20035;-66
2023/08/26 07:54:17;;;;;;;8.40;7.50;;;26.60;93.00;;;;;;21028398;28;20113;-66
2023/08/26 08:04:18;;;;;;;8.07;7.25;;;26.60;93.10;;;;;;21030605;28;20051;-67
2023/08/26 08:14:20;;;;;;;9.30;8.25;;;27.30;95.80;;;;;;21023519;28;20036;-66
2023/08/26 08:24:22;;;;;;;8.18;6.97;;;27.80;97.40;;;;;;21017468;28;20028;-66
2023/08/26 08:34:24;;;;;;;9.63;7.95;;;28.00;98.10;;;;;;21024913;28;20024;-66
2023/08/26 08:44:30;;;;;;;8.25;7.45;;;28.10;97.80;;;;;;21023574;28;20043;-67
2023/08/26 08:54:33;;;;;;;8.10;7.30;;;28.20;99.60;;;;;;21039145;28;20050;-65
2023/08/26 09:04:35;;;;;;;8.73;7.60;;;28.40;92.10;;;;;;21004032;28;20286;-61
2023/08/26 09:14:37;;;;;;;13.43;7.88;;;29.10;98.70;;;;;;21031846;28;20400;-63
2023/08/26 09:24:42;;;;;;;8.95;7.30;;;;;;;;;;21021433;28;20461;-63
2023/08/26 09:34:43;;;;;;;8.30;7.60;;;29.00;91.40;;;;;;21006373;28;20436;-57
2023/08/26 09:44:45;;;;;;;8.23;7.40;;;29.10;89.80;;;;;;21022356;28;20032;-56
2023/08/26 09:54:49;;;;;;;9.70;8.75;;;29.40;90.30;;;;;;21009505;28;20083;-63
2023/08/26 10:05:06;;;;;;;10.20;8.93;;;29.30;88.60;;;;;;21022723;28;20094;-63
2023/08/26 10:15:12;;;;;;;8.68;7.85;;;29.40;90.60;;;;;;21025298;28;20397;-62
2023/08/26 10:25:15;;;;;;;11.48;8.75;;;29.50;90.70;;;;;;21014242;28;20465;-57
2023/08/26 10:35:17;;;;;;;11.82;9.38;;;29.80;91.30;;;;;;20993515;28;20033;-57
2023/08/26 10:45:24;;;;;;;11.98;10.80;;;;;;;;;;21019889;28;20028;-57
2023/08/26 10:55:28;;;;;;;12.68;11.48;;;30.40;91.40;;;;;;20992955;28;20438;-61
2023/08/26 11:05:30;;;;;;;11.88;10.40;;;30.30;91.90;;;;;;21028274;28;20090;-62
2023/08/26 11:15:39;;;;;;;11.95;10.75;;;30.30;92.70;;;;;;21009029;28;20028;-61
2023/08/26 11:25:41;;;;;;;12.57;10.57;;;30.50;91.80;;;;;;21021688;28;20396;-61
2023/08/26 11:35:44;;;;;;;11.88;9.70;;;30.30;90.90;;;;;;21021267;28;20036;-62
2023/08/26 11:45:50;;;;;;;10.70;9.75;;;30.30;90.20;;;;;;21011456;28;20166;-62
2023/08/26 11:55:52;;;;;;;11.97;10.63;;;30.30;91.30;;;;;;21025822;28;20058;-62
2023/08/26 12:05:55;;;;;;;14.25;10.88;;;30.20;91.10;;;;;;21013759;28;20497;-61
2023/08/26 12:15:57;;;;;;;11.73;10.63;;;30.20;90.70;;;;;;21006095;28;20090;-61
2023/08/26 12:26:10;;;;;;;12.27;10.90;;;30.50;91.30;;;;;;21003790;28;20033;-59
2023/08/26 12:36:13;;;;;;;9.93;9.02;;;30.50;90.60;;;;;;21001226;28;20024;-60
2023/08/26 12:46:15;;;;;;;11.48;10.27;;;30.20;90.10;;;;;;21021307;28;20044;-58
2023/08/26 12:56:19;;;;;;;9.68;8.77;;;30.00;87.70;;;;;;21016289;28;20104;-58
2023/08/26 13:06:21;;;;;;;12.20;9.43;;;29.50;90.40;;;;;;20994956;28;20090;-57
2023/08/26 13:16:23;;;;;;;11.07;9.20;;;29.90;85.70;;;;;;20992563;28;20083;-57
2023/08/26 13:26:25;;;;;;;9.38;8.48;;;30.10;85.20;;;;;;21018104;28;20036;-59
2023/08/26 13:36:27;;;;;;;10.07;8.98;;;30.00;86.30;;;;;;21002808;28;20041;-63
2023/08/26 13:46:31;;;;;;;12.15;8.75;;;;;;;;;;20996463;28;20051;-60
2023/08/26 13:56:34;;;;;;;10.98;7.78;;;31.50;87.90;;;;;;21007286;28;20074;-60
2023/08/26 14:06:36;;;;;;;8.95;8.05;;;30.10;87.60;;;;;;20996217;28;20059;-63
2023/08/26 14:16:40;;;;;;;7.60;6.85;;;28.30;89.40;;;;;;20990620;28;20086;-65
2023/08/26 14:26:42;;;;;;;10.93;6.78;;;27.60;89.60;;;;;;20997179;28;20061;-64
2023/08/26 14:36:44;;;;;;;10.73;7.68;;;26.60;90.30;;;;;;20996156;28;20033;-65
2023/08/26 14:46:46;;;;;;;8.68;7.38;;;25.80;91.70;;;;;;21006441;28;20027;-64
2023/08/26 14:56:48;;;;;;;9.27;8.30;;;24.90;94.20;;;;;;21008697;28;20037;-53
2023/08/26 15:06:51;;;;;;;9.57;8.52;;;24.30;95.30;;;;;;20990216;28;20056;-64
2023/08/26 15:16:54;;;;;;;13.80;8.98;;;23.60;95.60;;;;;;20996786;28;20028;-61
2023/08/26 15:26:56;;;;;;;8.82;7.93;;;22.90;96.90;;;;;;21020355;28;20099;-64
2023/08/26 15:36:59;;;;;;;11.45;9.15;;;22.30;98.20;;;;;;21016573;28;20439;-64
2023/08/26 15:47:02;;;;;;;10.15;8.90;;;21.90;98.60;;;;;;21018183;28;20031;-63
2023/08/26 15:57:04;;;;;;;10.07;8.20;;;21.60;99.20;;;;;;21003393;28;20031;-64
2023/08/26 16:07:06;;;;;;;100.05;23.17;;;21.40;99.40;;;;;;21031621;28;20052;-62
2023/08/26 16:17:08;;;;;;;36.22;23.38;;;19.90;99.90;;;;;;20981433;28;20501;-60
2023/08/26 16:27:11;;;;;;;15.63;10.82;;;17.60;99.90;;;;;;21022905;28;20028;-60
2023/08/26 16:37:14;;;;;;;23.30;17.02;;;17.00;99.90;;;;;;20935597;28;20105;-47
2023/08/26 16:47:16;;;;;;;30.67;22.67;;;17.00;99.90;;;;;;20927352;28;20117;-61
2023/08/26 16:57:18;;;;;;;37.67;25.38;;;17.30;99.90;;;;;;20886792;28;20049;-61
2023/08/26 17:07:20;;;;;;;38.17;25.95;;;17.50;99.90;;;;;;20993621;28;20055;-61
2023/08/26 17:17:22;;;;;;;24.98;20.10;;;17.30;99.90;;;;;;21030653;28;20054;-61
2023/08/26 17:27:24;;;;;;;33.05;24.48;;;17.10;99.90;;;;;;20998981;28;20032;-61
2023/08/26 17:37:25;;;;;;;28.17;22.38;;;17.00;99.90;;;;;;21037572;28;20454;-61
2023/08/26 17:47:27;;;;;;;30.20;23.63;;;16.90;99.90;;;;;;21047033;28;20043;-61
2023/08/26 17:57:29;;;;;;;26.27;19.40;;;16.90;99.90;;;;;;21045253;28;20028;-60
2023/08/26 18:07:31;;;;;;;24.33;19.80;;;16.90;99.90;;;;;;21000681;28;20058;-60
2023/08/26 18:17:35;;;;;;;32.67;24.00;;;16.70;99.90;;;;;;21045165;28;20032;-60
2023/08/26 18:27:38;;;;;;;55.17;38.88;;;16.70;99.90;;;;;;21012784;28;20028;-59
2023/08/26 18:37:40;;;;;;;44.17;31.88;;;16.70;99.90;;;;;;21036256;28;20415;-60
2023/08/26 18:47:42;;;;;;;30.55;23.27;;;16.60;99.90;;;;;;21015629;28;20036;-60
2023/08/26 18:57:45;;;;;;;30.02;20.00;;;16.50;99.90;;;;;;21024016;28;20032;-61
2023/08/26 19:07:48;;;;;;;30.10;22.25;;;16.50;99.90;;;;;;21024422;28;20443;-52
2023/08/26 19:17:50;;;;;;;24.73;19.30;;;16.50;99.90;;;;;;21023250;28;20028;-61
2023/08/26 19:27:54;;;;;;;32.55;21.75;;;16.50;99.90;;;;;;21015360;28;20112;-54
2023/08/26 19:37:56;;;;;;;22.52;18.70;;;16.50;99.90;;;;;;21040752;28;20090;-61
2023/08/26 19:47:57;;;;;;;24.08;18.67;;;16.60;99.90;;;;;;21013858;28;20432;-61
2023/08/26 19:58:00;;;;;;;22.83;17.63;;;16.70;99.90;;;;;;21052243;28;20031;-61
2023/08/26 20:08:02;;;;;;;21.55;18.48;;;16.90;99.90;;;;;;21029344;28;20039;-61
2023/08/26 20:18:04;;;;;;;23.55;17.58;;;17.00;99.90;;;;;;20993411;28;20470;-61
2023/08/26 20:28:07;;;;;;;21.02;17.15;;;17.10;99.90;;;;;;21011834;28;20024;-61
2023/08/26 20:38:09;;;;;;;19.80;17.10;;;17.10;99.90;;;;;;21047820;28;20029;-61
2023/08/26 20:48:11;;;;;;;18.45;16.15;;;17.30;99.90;;;;;;21033870;28;20439;-61
2023/08/26 20:58:13;;;;;;;22.15;16.35;;;17.50;99.90;;;;;;21050091;28;20398;-61
2023/08/26 21:08:15;;;;;;;20.55;15.88;;;17.60;99.90;;;;;;21023673;28;20032;-61
2023/08/26 21:18:17;;;;;;;20.40;16.25;;;17.50;99.90;;;;;;21008608;28;20024;-60
2023/08/26 21:28:25;;;;;;;21.42;16.67;;;17.60;99.90;;;;;;21005388;28;20036;-61
2023/08/26 21:38:26;;;;;;;19.63;16.65;;;17.90;99.90;;;;;;21025017;28;20476;-61
2023/08/26 21:48:28;;;;;;;23.67;19.08;;;18.10;99.90;;;;;;21027490;28;20116;-61
2023/08/26 21:58:30;;;;;;;27.98;22.70;;;18.10;99.90;;;;;;20962766;28;20041;-60
2023/08/26 22:08:34;;;;;;;32.63;25.75;;;17.80;99.90;;;;;;21026776;28;20055;-61
2023/08/26 22:18:35;;;;;;;34.50;28.13;;;17.60;99.90;;;;;;21003751;28;20032;-60
2023/08/26 22:28:37;;;;;;;45.28;33.05;;;17.40;99.90;;;;;;21033368;28;20028;-60
2023/08/26 22:38:39;;;;;;;42.55;30.50;;;17.20;99.90;;;;;;21026993;28;20338;-60
2023/08/26 22:48:41;;;;;;;41.28;30.75;;;17.30;99.90;;;;;;20961957;28;20032;-57
2023/08/26 22:58:43;;;;;;;37.78;27.70;;;17.20;99.90;;;;;;21032265;28;20032;-59
2023/08/26 23:08:44;;;;;;;35.03;27.50;;;17.10;99.90;;;;;;20999846;28;20063;-60
2023/08/26 23:18:46;;;;;;;31.55;23.83;;;17.00;99.90;;;;;;20999371;28;20040;-60
2023/08/26 23:28:48;;;;;;;21.60;16.35;;;16.80;99.90;;;;;;21038686;28;20046;-61
2023/08/26 23:38:50;;;;;;;21.65;14.32;;;16.80;99.90;;;;;;21056345;28;20053;-61
2023/08/26 23:48:52;;;;;;;22.45;14.80;;;16.70;99.90;;;;;;21015592;28;20032;-61
2023/08/26 23:58:53;;;;;;;24.27;16.25;;;16.50;99.90;;;;;;21044517;28;20393;-61
